GMT,Max TemperatureF,Mean TemperatureF,Min TemperatureF,Max Dew PointF,MeanDew PointF,Min DewpointF,Max Humidity, Mean Humidity, Min Humidity, Max Sea Level PressureIn, Mean Sea Level PressureIn, Min Sea Level PressureIn, Max VisibilityMiles, Mean VisibilityMiles, Min VisibilityMiles, Max Wind SpeedMPH, Mean Wind SpeedMPH, Max Gust SpeedMPH,PrecipitationIn, CloudCover, Events, WindDirDegrees
2012-11-1,49,46,42,41,39,37,87,69,58,29.26,29.06,28.87,16,7,6,33,22,38,0.08,3,Rain-Hail,290
2012-11-2,52,48,43,43,40,37,83,68,55,29.40,29.34,29.26,19,7,6,28,21,38,0.01,2,Rain,264
2012-11-3,50,48,46,41,39,37,81,70,59,29.49,29.45,29.39,6,6,5,28,20,34,0.02,3,Rain,260
2012-11-4,53,50,46,44,42,41,79,68,58,29.43,29.33,29.30,19,17,15,32,21,,0.03,,Rain,-1
2012-11-5,52,50,47,45,42,37,86,72,57,30.15,29.80,29.45,17,7,4,31,25,43,0.08,2,Rain,23
2012-11-6,53,51,49,47,44,40,82,72,62,30.39,30.32,30.19,14,7,6,17,14,,0.00,5,Rain,314
2012-11-7,53,52,50,46,44,43,82,73,61,30.42,30.37,30.28,19,8,6,14,12,,0.00,6,,272
2012-11-8,54,51,48,49,46,44,94,82,66,30.23,30.17,30.06,6,6,4,17,10,,0.01,3,Rain,308
2012-11-9,52,50,47,50,47,44,94,85,71,30.00,29.75,29.56,17,6,3,29,22,,0.16,6,Rain,217
2012-11-10,51,49,47,45,41,38,82,71,60,29.69,29.53,29.50,15,8,6,22,16,,0.08,1,Rain,278
2012-11-11,52,50,47,44,42,41,73,67,58,30.14,30.02,29.74,19,18,17,18,13,,0.01,,Rain,-1
2012-11-12,56,54,51,55,53,48,100,95,78,30.22,30.15,30.08,16,7,4,24,20,,0.02,6,Rain,239
2012-11-13,56,54,53,52,52,49,94,89,79,30.24,30.23,30.18,16,8,6,31,24,,0.00,5,Rain,194
2012-11-14,55,53,51,52,49,46,94,82,73,30.24,30.21,30.18,19,8,6,16,13,,0.00,1,,104
2012-11-15,54,52,51,48,47,45,83,78,69,30.19,30.13,30.04,18,8,6,13,9,,0.00,6,,92
2012-11-16,53,52,49,52,51,48,100,98,94,29.99,29.86,29.78,6,2,0,14,9,,0.08,6,Fog-Rain,124
2012-11-17,52,50,48,47,44,39,86,77,61,29.94,29.85,29.78,6,6,6,15,10,,0.00,2,,344
2012-11-18,53,49,46,46,41,38,71,65,57,29.99,29.91,29.79,18,16,13,36,15,,0.01,,,-1
2012-11-19,55,54,53,54,52,48,100,94,75,29.73,29.64,29.62,11,4,1,44,34,58,0.04,6,Rain,202
2012-11-20,55,52,47,55,50,41,96,86,62,29.71,29.63,29.48,8,6,3,39,22,,0.20,3,Rain,228
2012-11-21,54,50,46,52,46,43,93,80,63,29.89,29.84,29.67,19,8,5,33,16,36,0.01,3,Rain,243
2012-11-22,56,50,44,52,49,41,97,88,66,30.18,29.64,29.53,19,5,1,55,41,70,0.67,5,Rain,223
2012-11-23,52,50,48,45,42,41,82,72,64,29.96,29.90,29.80,19,8,6,12,9,,0.00,1,,261
2012-11-24,52,50,48,51,48,41,100,91,68,29.88,29.64,29.39,11,5,2,37,22,,1.85,6,Rain,118
2012-11-25,53,51,47,50,46,41,90,82,66,29.77,29.60,29.43,16,8,2,37,23,,0.24,,Rain,-1
2012-11-26,49,47,45,43,41,39,87,74,60,29.83,29.68,29.45,19,8,4,38,32,50,0.08,5,Rain,334
2012-11-27,49,46,44,45,42,38,94,78,62,30.02,29.84,29.80,17,8,4,32,29,44,0.16,6,Rain,2
2012-11-28,49,48,46,41,39,36,81,72,55,30.12,30.08,30.03,14,7,6,22,17,,0.03,2,Rain,16
2012-11-29,48,46,44,39,35,34,76,65,53,30.09,29.99,29.89,6,6,6,15,9,,0.02,2,Rain,336
2012-11-30,50,46,42,43,42,39,87,79,68,29.97,29.90,29.88,6,6,6,7,4,,0.00,1,Rain,236